Willwood, New York
Current Conditions -  °F | °C
As of 2:44 AM on Monday 22 Dec 2014 (Local Time) from KHWV Reporting Station
Overcast Overcast  
Wind Chill: 37°   Ceiling: 2000
Heat Index: 37°   Visibility: 10mi
Dew Point: 35°   Wind: 0mph
Humidity: 93%   Direction: NA
Pressure: 30.32"   Gusts: NA
Location:  40.953°N, 72.8286°W
Report Text: KHWV 220744Z AUTO 00000KT 10SM FEW007 BKN020 OVC040 03/02 A3032 RMK AO2 T00280017 TSNO
Loading
Personal Weather Stations






























Interactive Weather Map New forecast layout! Learn more

10-Day Weather Forecast

Advertisements
Track Severe Weather on mobile